createdAt,value
2023-05-25T00:02:04.707Z,21.30
2023-05-25T00:06:56.317Z,21.60
2023-05-25T00:11:47.815Z,21.90
2023-05-25T00:16:41.470Z,22.70
2023-05-25T00:21:37.576Z,23.20
2023-05-25T00:26:29.081Z,22.60
2023-05-25T00:31:22.874Z,24.60
2023-05-25T00:36:14.359Z,23.80
2023-05-25T00:41:05.833Z,26.60
2023-05-25T00:45:58.362Z,22.60
2023-05-25T00:50:59.294Z,22.40
2023-05-25T00:55:59.736Z,23.50
2023-05-25T01:00:55.643Z,22.70
2023-05-25T01:05:51.236Z,26.00
2023-05-25T01:10:45.803Z,26.00
2023-05-25T01:21:37.462Z,24.90
2023-05-25T01:26:46.351Z,27.60
2023-05-25T01:31:43.738Z,29.40
2023-05-25T01:36:43.711Z,32.10
2023-05-25T01:41:36.683Z,30.20
2023-05-25T01:46:39.427Z,30.30
2023-05-25T01:51:43.961Z,37.20
2023-05-25T02:02:12.648Z,31.50
2023-05-25T02:07:09.515Z,33.50
2023-05-25T02:12:20.009Z,42.60
2023-05-25T02:17:37.332Z,33.30
2023-05-25T02:22:29.679Z,39.60
2023-05-25T02:27:21.167Z,41.00
2023-05-25T02:32:14.010Z,35.20
2023-05-25T02:37:05.542Z,37.20
2023-05-25T02:41:59.017Z,39.20
2023-05-25T02:46:51.095Z,40.00
2023-05-25T02:51:42.684Z,49.90
2023-05-25T02:56:34.230Z,38.90
2023-05-25T03:01:30.329Z,40.90
2023-05-25T03:06:22.492Z,36.20
2023-05-25T03:11:16.900Z,36.10
2023-05-25T03:16:08.610Z,35.40
2023-05-25T03:21:00.151Z,39.20
2023-05-25T03:25:51.678Z,38.30
2023-05-25T03:30:43.441Z,42.80
2023-05-25T03:35:35.245Z,43.70
2023-05-25T03:40:26.871Z,52.40
2023-05-25T03:45:19.071Z,48.30
2023-05-25T03:50:11.390Z,40.80
2023-05-25T03:55:04.577Z,34.70
2023-05-25T03:59:56.221Z,34.20
2023-05-25T04:04:51.195Z,35.20
2023-05-25T04:09:42.949Z,30.30
2023-05-25T04:14:34.734Z,35.50
2023-05-25T04:19:26.238Z,37.10
2023-05-25T04:24:18.197Z,39.80
2023-05-25T04:29:09.832Z,37.50
2023-05-25T04:34:20.937Z,37.00
2023-05-25T04:39:28.075Z,40.60
2023-05-25T04:44:21.699Z,36.50
2023-05-25T04:49:19.213Z,38.30
2023-05-25T04:54:10.899Z,37.90
2023-05-25T04:59:03.930Z,35.90
2023-05-25T05:03:55.711Z,32.10
2023-05-25T05:08:48.038Z,38.70
2023-05-25T05:13:39.588Z,38.90
2023-05-25T05:18:31.332Z,35.70
2023-05-25T05:23:22.961Z,32.80
2023-05-25T05:28:16.211Z,39.70
2023-05-25T05:33:07.880Z,39.00
2023-05-25T05:38:08.921Z,38.10
2023-05-25T05:43:01.580Z,35.20
2023-05-25T05:47:54.437Z,32.80
2023-05-25T05:52:46.498Z,38.60
2023-05-25T05:57:38.274Z,40.90
2023-05-25T06:02:29.888Z,38.80
2023-05-25T06:07:22.206Z,32.30
2023-05-25T06:12:14.643Z,31.30
2023-05-25T06:17:12.053Z,35.50
2023-05-25T06:26:59.141Z,29.70
2023-05-25T06:32:11.120Z,29.00
2023-05-25T06:37:03.420Z,32.20
2023-05-25T06:42:23.360Z,33.90
2023-05-25T06:47:17.768Z,30.50
2023-05-25T06:52:09.344Z,35.30
2023-05-25T06:57:00.820Z,35.60
2023-05-25T07:01:53.443Z,34.30
2023-05-25T07:06:48.317Z,35.90
2023-05-25T07:11:39.871Z,31.40
2023-05-25T07:16:31.759Z,36.20
2023-05-25T07:21:26.168Z,33.20
2023-05-25T07:26:17.711Z,34.30
2023-05-25T07:31:15.554Z,38.80
2023-05-25T07:49:11.255Z,32.10
2023-05-25T08:26:54.286Z,29.40
2023-05-25T08:31:58.170Z,30.10
2023-05-25T08:37:25.854Z,28.80
2023-05-25T08:42:17.682Z,30.00
2023-05-25T09:06:45.295Z,25.90
2023-05-25T11:41:46.856Z,16.90
2023-05-25T12:33:42.195Z,12.50
2023-05-25T12:39:49.392Z,12.90
2023-05-25T12:44:58.035Z,12.20
2023-05-25T12:50:16.499Z,14.30
2023-05-25T12:55:41.845Z,12.00
2023-05-25T13:00:48.971Z,13.90
2023-05-25T13:05:52.057Z,13.70
2023-05-25T13:10:52.297Z,16.40
2023-05-25T13:15:47.253Z,12.30
2023-05-25T13:20:47.438Z,12.80
2023-05-25T13:25:46.365Z,13.20
2023-05-25T13:30:39.337Z,12.00
2023-05-25T13:45:57.849Z,14.60
2023-05-25T13:56:00.836Z,14.40
2023-05-25T14:20:38.345Z,13.70
2023-05-25T14:20:38.363Z,13.70
2023-05-25T14:25:41.652Z,13.50
2023-05-25T14:30:47.010Z,13.20
2023-05-25T14:35:49.066Z,13.90
2023-05-25T14:41:11.022Z,14.10
2023-05-25T14:46:03.982Z,12.60
2023-05-25T14:51:01.920Z,13.30
2023-05-25T14:55:57.963Z,14.60
2023-05-25T15:00:50.953Z,12.70
2023-05-25T15:05:52.182Z,12.30
2023-05-25T15:10:59.988Z,12.10
2023-05-25T15:15:56.196Z,10.80
2023-05-25T15:20:50.446Z,11.10
2023-05-25T15:26:14.140Z,11.70
2023-05-25T15:30:58.280Z,11.60
2023-05-25T15:35:52.360Z,10.70
2023-05-25T15:40:47.964Z,13.80
2023-05-25T15:45:44.710Z,13.70
2023-05-25T15:50:42.449Z,10.90
2023-05-25T15:55:40.961Z,11.80
2023-05-25T16:00:37.543Z,10.60
2023-05-25T16:16:45.075Z,9.50
2023-05-25T16:21:45.965Z,13.30
2023-05-25T16:26:50.466Z,9.80
2023-05-25T16:32:58.569Z,10.10
2023-05-25T17:43:13.991Z,9.80
2023-05-25T18:34:34.357Z,15.50
2023-05-25T18:46:33.192Z,12.70
2023-05-25T18:58:11.330Z,12.90
2023-05-25T19:14:49.091Z,13.70
2023-05-25T19:26:07.387Z,14.60
2023-05-25T19:31:34.338Z,12.90
2023-05-25T19:37:10.820Z,13.80
2023-05-25T19:43:00.071Z,14.70
2023-05-25T20:04:52.503Z,14.40
2023-05-25T20:16:25.152Z,14.70
2023-05-25T20:21:39.817Z,15.30
2023-05-25T20:33:21.205Z,15.60
2023-05-25T20:44:29.110Z,18.70
2023-05-25T20:50:31.716Z,18.00
2023-05-25T20:56:13.929Z,17.70
2023-05-25T21:01:49.840Z,17.00
2023-05-25T21:06:51.810Z,17.40
2023-05-25T21:12:25.962Z,17.80
2023-05-25T21:18:53.849Z,18.40
2023-05-25T21:24:36.371Z,16.30
2023-05-25T21:30:05.344Z,17.00
2023-05-25T21:36:39.850Z,16.10
2023-05-25T21:42:18.211Z,15.40
2023-05-25T21:47:35.620Z,14.70
2023-05-25T21:53:13.849Z,14.80
2023-05-25T21:58:34.011Z,14.60
2023-05-25T22:03:45.534Z,15.10
2023-05-25T22:20:26.889Z,13.60
2023-05-25T22:31:18.979Z,14.80
2023-05-25T22:36:26.653Z,14.20
2023-05-25T22:41:39.402Z,13.50
2023-05-25T22:46:57.974Z,13.60
2023-05-25T22:52:18.723Z,13.30
2023-05-25T22:57:54.042Z,13.00
2023-05-25T23:03:53.470Z,14.70
2023-05-25T23:09:12.924Z,13.30
2023-05-25T23:14:53.675Z,13.20
2023-05-25T23:20:12.265Z,15.10
2023-05-25T23:25:30.182Z,14.60
2023-05-25T23:31:00.500Z,13.80
2023-05-25T23:36:24.844Z,14.40
2023-05-25T23:47:32.201Z,14.80
2023-05-25T23:52:38.958Z,15.70
